sensor_id;sensor_type;location;lat;lon;timestamp;pressure;altitude;pressure_sealevel;temperature;humidity
47897;BME280;39629;51.400;5.494;2023-04-27T00:02:08;101911.91;;;2.30;100.00
47897;BME280;39629;51.400;5.494;2023-04-27T00:07:10;101919.75;;;1.78;100.00
47897;BME280;39629;51.400;5.494;2023-04-27T00:12:13;101917.06;;;1.42;100.00
47897;BME280;39629;51.400;5.494;2023-04-27T00:17:15;101913.44;;;1.56;100.00
47897;BME280;39629;51.400;5.494;2023-04-27T00:22:16;101903.47;;;1.64;100.00
47897;BME280;39629;51.400;5.494;2023-04-27T00:27:19;101919.50;;;1.73;100.00
47897;BME280;39629;51.400;5.494;2023-04-27T00:32:21;101925.59;;;1.74;100.00
47897;BME280;39629;51.400;5.494;2023-04-27T00:37:23;101919.22;;;1.50;100.00
47897;BME280;39629;51.400;5.494;2023-04-27T00:42:26;101920.28;;;0.88;100.00
47897;BME280;39629;51.400;5.494;2023-04-27T00:47:28;101915.34;;;1.09;100.00
47897;BME280;39629;51.400;5.494;2023-04-27T00:52:30;101923.69;;;1.20;100.00
47897;BME280;39629;51.400;5.494;2023-04-27T00:57:33;101913.81;;;1.29;100.00
47897;BME280;39629;51.400;5.494;2023-04-27T01:02:35;101917.38;;;1.31;100.00
47897;BME280;39629;51.400;5.494;2023-04-27T01:07:37;101922.25;;;1.25;100.00
47897;BME280;39629;51.400;5.494;2023-04-27T01:12:40;101926.44;;;1.23;100.00
47897;BME280;39629;51.400;5.494;2023-04-27T01:17:41;101927.81;;;1.16;100.00
47897;BME280;39629;51.400;5.494;2023-04-27T01:22:43;101923.53;;;1.17;100.00
47897;BME280;39629;51.400;5.494;2023-04-27T01:27:46;101926.72;;;1.28;100.00
47897;BME280;39629;51.400;5.494;2023-04-27T01:32:47;101920.31;;;1.21;100.00
47897;BME280;39629;51.400;5.494;2023-04-27T01:37:52;101923.78;;;0.57;100.00
47897;BME280;39629;51.400;5.494;2023-04-27T01:42:55;101921.13;;;0.56;100.00
47897;BME280;39629;51.400;5.494;2023-04-27T01:47:57;101914.75;;;0.65;100.00
47897;BME280;39629;51.400;5.494;2023-04-27T01:52:59;101913.91;;;0.66;100.00
47897;BME280;39629;51.400;5.494;2023-04-27T01:58:03;101913.59;;;0.60;100.00
47897;BME280;39629;51.400;5.494;2023-04-27T02:03:06;101911.16;;;0.63;100.00
47897;BME280;39629;51.400;5.494;2023-04-27T02:08:08;101902.03;;;0.70;100.00
47897;BME280;39629;51.400;5.494;2023-04-27T02:13:11;101903.56;;;0.66;100.00
47897;BME280;39629;51.400;5.494;2023-04-27T02:18:12;101913.91;;;0.66;100.00
47897;BME280;39629;51.400;5.494;2023-04-27T02:23:15;101902.78;;;0.53;100.00
47897;BME280;39629;51.400;5.494;2023-04-27T02:28:17;101896.81;;;0.54;100.00
47897;BME280;39629;51.400;5.494;2023-04-27T02:33:19;101883.66;;;0.34;100.00
47897;BME280;39629;51.400;5.494;2023-04-27T02:38:21;101889.16;;;0.40;100.00
47897;BME280;39629;51.400;5.494;2023-04-27T02:43:24;101884.59;;;0.20;100.00
47897;BME280;39629;51.400;5.494;2023-04-27T02:48:26;101890.25;;;-0.03;100.00
47897;BME280;39629;51.400;5.494;2023-04-27T02:53:27;101892.09;;;0.15;100.00
47897;BME280;39629;51.400;5.494;2023-04-27T02:58:30;101899.59;;;0.10;100.00
47897;BME280;39629;51.400;5.494;2023-04-27T03:03:32;101892.13;;;0.00;100.00
47897;BME280;39629;51.400;5.494;2023-04-27T03:08:33;101896.41;;;-0.00;100.00
47897;BME280;39629;51.400;5.494;2023-04-27T03:13:37;101885.34;;;0.02;100.00
47897;BME280;39629;51.400;5.494;2023-04-27T03:18:41;101894.59;;;-0.02;100.00
47897;BME280;39629;51.400;5.494;2023-04-27T03:23:42;101899.25;;;0.04;100.00
47897;BME280;39629;51.400;5.494;2023-04-27T03:28:45;101898.91;;;-0.02;100.00
47897;BME280;39629;51.400;5.494;2023-04-27T03:33:47;101901.41;;;-0.19;100.00
47897;BME280;39629;51.400;5.494;2023-04-27T03:38:49;101905.16;;;-0.28;100.00
47897;BME280;39629;51.400;5.494;2023-04-27T03:43:52;101913.28;;;-0.22;100.00
47897;BME280;39629;51.400;5.494;2023-04-27T03:48:53;101915.34;;;-0.31;100.00
47897;BME280;39629;51.400;5.494;2023-04-27T03:53:55;101910.94;;;-0.32;100.00
47897;BME280;39629;51.400;5.494;2023-04-27T03:58:58;101910.94;;;-0.32;100.00
47897;BME280;39629;51.400;5.494;2023-04-27T04:04:07;101917.66;;;-0.36;100.00
47897;BME280;39629;51.400;5.494;2023-04-27T04:09:09;101910.69;;;-0.37;100.00
47897;BME280;39629;51.400;5.494;2023-04-27T04:14:13;101913.38;;;-0.36;100.00
47897;BME280;39629;51.400;5.494;2023-04-27T04:19:14;101911.41;;;-0.40;100.00
47897;BME280;39629;51.400;5.494;2023-04-27T04:24:16;101916.56;;;-0.40;100.00
47897;BME280;39629;51.400;5.494;2023-04-27T04:29:19;101922.09;;;-0.33;100.00
47897;BME280;39629;51.400;5.494;2023-04-27T04:34:21;101926.28;;;-0.36;100.00
47897;BME280;39629;51.400;5.494;2023-04-27T04:39:22;101933.53;;;-0.30;100.00
47897;BME280;39629;51.400;5.494;2023-04-27T04:44:25;101946.94;;;-0.22;100.00
47897;BME280;39629;51.400;5.494;2023-04-27T04:49:27;101945.38;;;-0.19;100.00
47897;BME280;39629;51.400;5.494;2023-04-27T04:54:29;101948.53;;;-0.09;100.00
47897;BME280;39629;51.400;5.494;2023-04-27T04:59:33;101946.66;;;0.03;100.00
47897;BME280;39629;51.400;5.494;2023-04-27T05:04:35;101949.66;;;0.11;100.00
47897;BME280;39629;51.400;5.494;2023-04-27T05:09:36;101943.69;;;0.27;100.00
47897;BME280;39629;51.400;5.494;2023-04-27T05:14:39;101952.44;;;0.60;100.00
47897;BME280;39629;51.400;5.494;2023-04-27T05:19:40;101958.22;;;1.19;100.00
47897;BME280;39629;51.400;5.494;2023-04-27T05:24:42;101966.63;;;1.81;100.00
47897;BME280;39629;51.400;5.494;2023-04-27T05:29:45;101949.16;;;2.13;100.00
47897;BME280;39629;51.400;5.494;2023-04-27T05:34:46;101954.38;;;2.49;100.00
47897;BME280;39629;51.400;5.494;2023-04-27T05:39:48;101957.22;;;3.11;100.00
47897;BME280;39629;51.400;5.494;2023-04-27T05:44:51;101958.13;;;3.50;100.00
47897;BME280;39629;51.400;5.494;2023-04-27T05:49:52;101956.50;;;4.35;100.00
47897;BME280;39629;51.400;5.494;2023-04-27T05:54:54;101959.88;;;4.76;100.00
47897;BME280;39629;51.400;5.494;2023-04-27T05:59:57;101960.00;;;5.04;100.00
47897;BME280;39629;51.400;5.494;2023-04-27T06:04:59;101965.94;;;5.47;100.00
47897;BME280;39629;51.400;5.494;2023-04-27T06:10:01;101963.91;;;5.88;100.00
47897;BME280;39629;51.400;5.494;2023-04-27T06:15:05;101958.00;;;6.46;100.00
47897;BME280;39629;51.400;5.494;2023-04-27T06:20:08;101956.31;;;5.95;100.00
47897;BME280;39629;51.400;5.494;2023-04-27T06:25:11;101951.69;;;6.12;100.00
47897;BME280;39629;51.400;5.494;2023-04-27T06:30:14;101940.06;;;6.31;100.00
47897;BME280;39629;51.400;5.494;2023-04-27T06:35:16;101949.13;;;6.69;100.00
47897;BME280;39629;51.400;5.494;2023-04-27T06:40:17;101953.53;;;6.70;100.00
47897;BME280;39629;51.400;5.494;2023-04-27T06:45:20;101953.72;;;7.35;100.00
47897;BME280;39629;51.400;5.494;2023-04-27T06:50:22;101957.69;;;7.53;100.00
47897;BME280;39629;51.400;5.494;2023-04-27T06:55:23;101944.41;;;8.13;100.00
47897;BME280;39629;51.400;5.494;2023-04-27T07:00:26;101955.19;;;7.91;100.00
47897;BME280;39629;51.400;5.494;2023-04-27T07:05:28;101945.78;;;7.97;100.00
47897;BME280;39629;51.400;5.494;2023-04-27T07:10:29;101936.63;;;8.16;100.00
47897;BME280;39629;51.400;5.494;2023-04-27T07:15:32;101935.47;;;8.40;100.00
47897;BME280;39629;51.400;5.494;2023-04-27T07:20:36;101926.88;;;8.47;100.00
47897;BME280;39629;51.400;5.494;2023-04-27T07:25:37;101941.94;;;8.56;100.00
47897;BME280;39629;51.400;5.494;2023-04-27T07:30:41;101943.59;;;9.32;100.00
47897;BME280;39629;51.400;5.494;2023-04-27T07:35:42;101938.84;;;10.07;100.00
47897;BME280;39629;51.400;5.494;2023-04-27T07:40:44;101946.13;;;9.27;100.00
47897;BME280;39629;51.400;5.494;2023-04-27T07:45:47;101932.69;;;9.58;100.00
47897;BME280;39629;51.400;5.494;2023-04-27T07:50:48;101928.16;;;9.98;100.00
47897;BME280;39629;51.400;5.494;2023-04-27T07:55:50;101931.53;;;9.42;100.00
47897;BME280;39629;51.400;5.494;2023-04-27T08:00:53;101917.91;;;9.63;100.00
47897;BME280;39629;51.400;5.494;2023-04-27T08:05:54;101920.28;;;9.99;100.00
47897;BME280;39629;51.400;5.494;2023-04-27T08:10:56;101926.59;;;10.09;100.00
47897;BME280;39629;51.400;5.494;2023-04-27T08:15:59;101922.91;;;10.53;100.00
47897;BME280;39629;51.400;5.494;2023-04-27T08:21:00;101928.59;;;10.26;100.00
47897;BME280;39629;51.400;5.494;2023-04-27T08:26:03;101925.41;;;11.05;100.00
47897;BME280;39629;51.400;5.494;2023-04-27T08:31:06;101921.50;;;11.50;100.00
47897;BME280;39629;51.400;5.494;2023-04-27T08:36:08;101894.88;;;12.16;100.00
47897;BME280;39629;51.400;5.494;2023-04-27T08:41:10;101882.66;;;12.35;100.00
47897;BME280;39629;51.400;5.494;2023-04-27T08:46:13;101877.78;;;13.06;100.00
47897;BME280;39629;51.400;5.494;2023-04-27T08:51:15;101883.75;;;12.60;97.00
47897;BME280;39629;51.400;5.494;2023-04-27T08:56:17;101904.09;;;12.78;89.59
47897;BME280;39629;51.400;5.494;2023-04-27T09:01:20;101890.22;;;13.43;80.48
47897;BME280;39629;51.400;5.494;2023-04-27T09:06:32;101873.47;;;13.49;76.32
47897;BME280;39629;51.400;5.494;2023-04-27T09:11:35;101879.69;;;13.83;61.22
47897;BME280;39629;51.400;5.494;2023-04-27T09:16:39;101890.97;;;13.03;60.42
47897;BME280;39629;51.400;5.494;2023-04-27T09:21:40;101871.75;;;13.65;56.75
47897;BME280;39629;51.400;5.494;2023-04-27T09:26:48;101874.38;;;14.29;52.90
47897;BME280;39629;51.400;5.494;2023-04-27T09:31:51;101871.69;;;13.31;53.00
47897;BME280;39629;51.400;5.494;2023-04-27T09:36:52;101874.28;;;13.10;49.71
47897;BME280;39629;51.400;5.494;2023-04-27T09:41:55;101866.44;;;13.40;49.01
47897;BME280;39629;51.400;5.494;2023-04-27T09:46:58;101870.72;;;13.05;47.17
47897;BME280;39629;51.400;5.494;2023-04-27T09:52:00;101851.47;;;13.62;48.04
47897;BME280;39629;51.400;5.494;2023-04-27T09:57:10;101856.78;;;13.85;47.25
47897;BME280;39629;51.400;5.494;2023-04-27T10:02:18;101853.22;;;13.83;47.69
47897;BME280;39629;51.400;5.494;2023-04-27T10:07:21;101847.88;;;13.35;46.11
47897;BME280;39629;51.400;5.494;2023-04-27T10:12:26;101849.72;;;14.06;44.40
47897;BME280;39629;51.400;5.494;2023-04-27T10:17:31;101847.06;;;14.09;38.42
47897;BME280;39629;51.400;5.494;2023-04-27T10:22:37;101853.09;;;14.68;37.69
47897;BME280;39629;51.400;5.494;2023-04-27T10:27:39;101849.63;;;14.52;38.08
47897;BME280;39629;51.400;5.494;2023-04-27T10:32:51;101848.63;;;14.78;40.93
47897;BME280;39629;51.400;5.494;2023-04-27T10:38:04;101849.72;;;13.92;40.57
47897;BME280;39629;51.400;5.494;2023-04-27T10:43:09;101853.25;;;13.82;38.01
47897;BME280;39629;51.400;5.494;2023-04-27T10:48:13;101839.16;;;14.00;38.09
47897;BME280;39629;51.400;5.494;2023-04-27T10:53:15;101832.97;;;14.07;38.43
47897;BME280;39629;51.400;5.494;2023-04-27T10:58:21;101823.25;;;14.13;40.01
47897;BME280;39629;51.400;5.494;2023-04-27T11:03:25;101810.72;;;14.68;37.55
47897;BME280;39629;51.400;5.494;2023-04-27T11:08:26;101807.22;;;14.57;38.27
47897;BME280;39629;51.400;5.494;2023-04-27T11:13:29;101802.91;;;14.36;37.18
47897;BME280;39629;51.400;5.494;2023-04-27T11:18:36;101808.22;;;14.26;37.91
47897;BME280;39629;51.400;5.494;2023-04-27T11:23:38;101784.94;;;14.99;38.70
47897;BME280;39629;51.400;5.494;2023-04-27T11:28:40;101787.03;;;14.23;39.48
47897;BME280;39629;51.400;5.494;2023-04-27T11:33:48;101783.44;;;14.51;37.13
47897;BME280;39629;51.400;5.494;2023-04-27T11:38:56;101785.16;;;14.52;36.89
47897;BME280;39629;51.400;5.494;2023-04-27T11:44:03;101768.97;;;15.06;36.85
47897;BME280;39629;51.400;5.494;2023-04-27T11:49:06;101777.97;;;14.81;37.63
47897;BME280;39629;51.400;5.494;2023-04-27T11:54:08;101773.16;;;15.41;38.39
47897;BME280;39629;51.400;5.494;2023-04-27T11:59:18;101786.03;;;14.58;37.61
47897;BME280;39629;51.400;5.494;2023-04-27T12:04:21;101774.25;;;15.16;35.18
47897;BME280;39629;51.400;5.494;2023-04-27T12:09:22;101760.06;;;15.22;35.75
47897;BME280;39629;51.400;5.494;2023-04-27T12:14:24;101760.47;;;14.45;35.62
47897;BME280;39629;51.400;5.494;2023-04-27T12:19:27;101749.50;;;15.13;33.87
47897;BME280;39629;51.400;5.494;2023-04-27T12:24:29;101767.94;;;15.33;33.68
47897;BME280;39629;51.400;5.494;2023-04-27T12:29:31;101760.31;;;15.95;34.53
47897;BME280;39629;51.400;5.494;2023-04-27T12:34:34;101740.81;;;14.94;32.26
47897;BME280;39629;51.400;5.494;2023-04-27T12:39:35;101747.34;;;15.63;33.41
47897;BME280;39629;51.400;5.494;2023-04-27T12:44:37;101745.56;;;15.66;32.56
47897;BME280;39629;51.400;5.494;2023-04-27T12:49:40;101744.22;;;15.13;31.93
47897;BME280;39629;51.400;5.494;2023-04-27T12:54:42;101746.03;;;15.02;33.19
47897;BME280;39629;51.400;5.494;2023-04-27T12:59:43;101740.94;;;15.86;33.03
47897;BME280;39629;51.400;5.494;2023-04-27T13:04:47;101730.84;;;16.20;35.06
47897;BME280;39629;51.400;5.494;2023-04-27T13:09:49;101724.72;;;16.13;34.13
47897;BME280;39629;51.400;5.494;2023-04-27T13:14:50;101732.59;;;16.18;33.61
47897;BME280;39629;51.400;5.494;2023-04-27T13:19:53;101732.34;;;15.57;33.70
47897;BME280;39629;51.400;5.494;2023-04-27T13:24:55;101724.81;;;16.04;32.23
47897;BME280;39629;51.400;5.494;2023-04-27T13:29:57;101716.53;;;16.29;32.97
47897;BME280;39629;51.400;5.494;2023-04-27T13:35:00;101698.00;;;16.23;33.82
47897;BME280;39629;51.400;5.494;2023-04-27T13:40:01;101687.56;;;16.09;33.65
47897;BME280;39629;51.400;5.494;2023-04-27T13:45:05;101698.41;;;15.92;32.62
47897;BME280;39629;51.400;5.494;2023-04-27T13:50:09;101687.34;;;16.27;31.80
47897;BME280;39629;51.400;5.494;2023-04-27T13:55:11;101694.66;;;16.08;33.82
47897;BME280;39629;51.400;5.494;2023-04-27T14:00:13;101677.56;;;15.53;33.37
47897;BME280;39629;51.400;5.494;2023-04-27T14:05:17;101666.66;;;14.85;34.18
47897;BME280;39629;51.400;5.494;2023-04-27T14:10:18;101663.28;;;15.68;34.84
47897;BME280;39629;51.400;5.494;2023-04-27T14:15:20;101656.63;;;16.05;33.51
47897;BME280;39629;51.400;5.494;2023-04-27T14:20:23;101643.59;;;15.88;31.94
47897;BME280;39629;51.400;5.494;2023-04-27T14:25:26;101635.56;;;15.94;32.38
47897;BME280;39629;51.400;5.494;2023-04-27T14:30:32;101632.97;;;15.88;31.43
47897;BME280;39629;51.400;5.494;2023-04-27T14:35:35;101631.91;;;15.22;33.67
47897;BME280;39629;51.400;5.494;2023-04-27T14:40:37;101627.44;;;15.28;33.81
47897;BME280;39629;51.400;5.494;2023-04-27T14:45:38;101619.84;;;15.75;33.70
47897;BME280;39629;51.400;5.494;2023-04-27T14:50:41;101606.25;;;15.24;33.44
47897;BME280;39629;51.400;5.494;2023-04-27T14:55:43;101592.22;;;15.11;34.00
47897;BME280;39629;51.400;5.494;2023-04-27T15:00:45;101594.88;;;15.11;34.42
47897;BME280;39629;51.400;5.494;2023-04-27T15:05:48;101591.84;;;15.51;33.35
47897;BME280;39629;51.400;5.494;2023-04-27T15:10:50;101599.28;;;15.12;34.32
47897;BME280;39629;51.400;5.494;2023-04-27T15:15:53;101612.75;;;14.87;36.34
47897;BME280;39629;51.400;5.494;2023-04-27T15:20:58;101604.06;;;14.67;36.26
47897;BME280;39629;51.400;5.494;2023-04-27T15:25:59;101604.00;;;14.76;36.18
47897;BME280;39629;51.400;5.494;2023-04-27T15:31:01;101602.91;;;15.02;33.95
47897;BME280;39629;51.400;5.494;2023-04-27T15:36:04;101598.63;;;14.85;35.30
47897;BME280;39629;51.400;5.494;2023-04-27T15:41:06;101596.19;;;14.57;36.67
47897;BME280;39629;51.400;5.494;2023-04-27T15:46:08;101590.09;;;14.46;35.91
47897;BME280;39629;51.400;5.494;2023-04-27T15:51:11;101580.59;;;14.14;37.08
47897;BME280;39629;51.400;5.494;2023-04-27T15:56:12;101568.91;;;14.44;37.04
47897;BME280;39629;51.400;5.494;2023-04-27T16:01:15;101567.41;;;14.05;37.73
47897;BME280;39629;51.400;5.494;2023-04-27T16:06:18;101578.81;;;14.19;38.00
47897;BME280;39629;51.400;5.494;2023-04-27T16:11:20;101558.53;;;14.15;36.30
47897;BME280;39629;51.400;5.494;2023-04-27T16:16:21;101547.09;;;14.07;37.17
47897;BME280;39629;51.400;5.494;2023-04-27T16:21:25;101540.16;;;13.90;37.56
47897;BME280;39629;51.400;5.494;2023-04-27T16:26:27;101532.22;;;13.79;38.20
47897;BME280;39629;51.400;5.494;2023-04-27T16:31:28;101523.50;;;13.59;38.49
47897;BME280;39629;51.400;5.494;2023-04-27T16:36:32;101519.13;;;13.53;37.54
47897;BME280;39629;51.400;5.494;2023-04-27T16:41:34;101513.03;;;13.31;37.92
47897;BME280;39629;51.400;5.494;2023-04-27T16:46:35;101512.06;;;13.58;37.88
47897;BME280;39629;51.400;5.494;2023-04-27T16:51:38;101504.22;;;13.38;38.77
47897;BME280;39629;51.400;5.494;2023-04-27T16:56:40;101512.19;;;13.27;38.78
47897;BME280;39629;51.400;5.494;2023-04-27T17:01:41;101500.75;;;13.18;38.88
47897;BME280;39629;51.400;5.494;2023-04-27T17:06:44;101485.78;;;13.09;39.89
47897;BME280;39629;51.400;5.494;2023-04-27T17:11:47;101492.91;;;12.85;39.72
47897;BME280;39629;51.400;5.494;2023-04-27T17:16:49;101492.91;;;12.79;40.12
47897;BME280;39629;51.400;5.494;2023-04-27T17:21:52;101494.69;;;12.78;39.56
47897;BME280;39629;51.400;5.494;2023-04-27T17:26:53;101489.44;;;12.65;39.98
47897;BME280;39629;51.400;5.494;2023-04-27T17:31:55;101497.34;;;12.51;40.74
47897;BME280;39629;51.400;5.494;2023-04-27T17:36:57;101474.47;;;12.51;40.45
47897;BME280;39629;51.400;5.494;2023-04-27T17:41:59;101477.09;;;12.33;41.41
47897;BME280;39629;51.400;5.494;2023-04-27T17:47:01;101470.03;;;12.16;42.09
47897;BME280;39629;51.400;5.494;2023-04-27T17:52:04;101472.66;;;12.25;41.87
47897;BME280;39629;51.400;5.494;2023-04-27T17:57:05;101466.50;;;12.11;41.89
47897;BME280;39629;51.400;5.494;2023-04-27T18:02:08;101471.75;;;12.05;43.49
47897;BME280;39629;51.400;5.494;2023-04-27T18:07:11;101452.44;;;12.01;43.02
47897;BME280;39629;51.400;5.494;2023-04-27T18:12:12;101448.91;;;11.87;42.72
47897;BME280;39629;51.400;5.494;2023-04-27T18:17:14;101450.66;;;11.79;43.01
47897;BME280;39629;51.400;5.494;2023-04-27T18:22:17;101451.53;;;11.78;42.69
47897;BME280;39629;51.400;5.494;2023-04-27T18:27:18;101453.25;;;11.74;45.39
47897;BME280;39629;51.400;5.494;2023-04-27T18:32:20;101455.88;;;11.63;44.91
47897;BME280;39629;51.400;5.494;2023-04-27T18:37:23;101458.50;;;11.60;45.42
47897;BME280;39629;51.400;5.494;2023-04-27T18:42:25;101456.72;;;11.48;44.10
47897;BME280;39629;51.400;5.494;2023-04-27T18:47:27;101471.63;;;11.43;46.37
47897;BME280;39629;51.400;5.494;2023-04-27T18:52:30;101463.69;;;11.32;46.04
47897;BME280;39629;51.400;5.494;2023-04-27T18:57:32;101484.69;;;11.20;50.96
47897;BME280;39629;51.400;5.494;2023-04-27T19:02:33;101475.06;;;11.23;46.35
47897;BME280;39629;51.400;5.494;2023-04-27T19:07:36;101472.38;;;11.14;46.88
47897;BME280;39629;51.400;5.494;2023-04-27T19:12:38;101467.09;;;11.08;47.19
47897;BME280;39629;51.400;5.494;2023-04-27T19:17:39;101455.59;;;10.94;48.47
47897;BME280;39629;51.400;5.494;2023-04-27T19:22:42;101456.47;;;10.93;48.73
47897;BME280;39629;51.400;5.494;2023-04-27T19:27:44;101456.38;;;10.83;48.57
47897;BME280;39629;51.400;5.494;2023-04-27T19:32:45;101454.59;;;10.79;49.51
47897;BME280;39629;51.400;5.494;2023-04-27T19:37:48;101458.09;;;10.80;48.70
47897;BME280;39629;51.400;5.494;2023-04-27T19:42:50;101452.81;;;10.73;49.37
47897;BME280;39629;51.400;5.494;2023-04-27T19:47:52;101466.84;;;10.76;49.58
47897;BME280;39629;51.400;5.494;2023-04-27T19:52:55;101459.81;;;10.70;49.33
47897;BME280;39629;51.400;5.494;2023-04-27T19:57:57;101458.91;;;10.66;49.34
47897;BME280;39629;51.400;5.494;2023-04-27T20:02:58;101446.63;;;10.67;49.08
47897;BME280;39629;51.400;5.494;2023-04-27T20:08:01;101442.22;;;10.63;48.88
47897;BME280;39629;51.400;5.494;2023-04-27T20:13:03;101438.72;;;10.62;49.13
47897;BME280;39629;51.400;5.494;2023-04-27T20:18:05;101443.91;;;10.51;50.21
47897;BME280;39629;51.400;5.494;2023-04-27T20:23:08;101438.66;;;10.54;50.64
47897;BME280;39629;51.400;5.494;2023-04-27T20:28:09;101440.34;;;10.49;50.49
47897;BME280;39629;51.400;5.494;2023-04-27T20:33:11;101434.16;;;10.41;51.20
47897;BME280;39629;51.400;5.494;2023-04-27T20:38:14;101421.84;;;10.35;52.26
47897;BME280;39629;51.400;5.494;2023-04-27T20:43:16;101390.25;;;10.32;51.04
47897;BME280;39629;51.400;5.494;2023-04-27T20:48:18;101382.34;;;10.32;51.41
47897;BME280;39629;51.400;5.494;2023-04-27T20:53:21;101377.09;;;10.29;52.13
47897;BME280;39629;51.400;5.494;2023-04-27T20:58:25;101368.28;;;10.27;51.76
47897;BME280;39629;51.400;5.494;2023-04-27T21:03:26;101370.03;;;10.23;52.13
47897;BME280;39629;51.400;5.494;2023-04-27T21:08:29;101362.09;;;10.17;52.14
47897;BME280;39629;51.400;5.494;2023-04-27T21:13:31;101347.09;;;10.04;55.24
47897;BME280;39629;51.400;5.494;2023-04-27T21:18:32;101341.78;;;9.98;55.82
47897;BME280;39629;51.400;5.494;2023-04-27T21:23:35;101333.94;;;10.04;53.53
47897;BME280;39629;51.400;5.494;2023-04-27T21:28:37;101327.75;;;9.94;55.10
47897;BME280;39629;51.400;5.494;2023-04-27T21:33:39;101323.34;;;9.92;54.67
47897;BME280;39629;51.400;5.494;2023-04-27T21:38:42;101306.66;;;9.86;55.45
47897;BME280;39629;51.400;5.494;2023-04-27T21:43:43;101300.50;;;9.84;56.09
47897;BME280;39629;51.400;5.494;2023-04-27T21:48:45;101293.47;;;9.80;56.11
47897;BME280;39629;51.400;5.494;2023-04-27T21:53:48;101295.16;;;9.75;57.32
47897;BME280;39629;51.400;5.494;2023-04-27T21:58:50;101295.25;;;9.83;55.54
47897;BME280;39629;51.400;5.494;2023-04-27T22:03:52;101288.16;;;9.76;56.46
47897;BME280;39629;51.400;5.494;2023-04-27T22:08:55;101289.94;;;9.78;56.96
47897;BME280;39629;51.400;5.494;2023-04-27T22:13:56;101295.13;;;9.69;59.48
47897;BME280;39629;51.400;5.494;2023-04-27T22:18:58;101269.66;;;9.63;58.60
47897;BME280;39629;51.400;5.494;2023-04-27T22:24:01;101269.66;;;9.63;59.24
47897;BME280;39629;51.400;5.494;2023-04-27T22:29:03;101267.88;;;9.59;58.98
47897;BME280;39629;51.400;5.494;2023-04-27T22:34:04;101274.88;;;9.59;59.62
47897;BME280;39629;51.400;5.494;2023-04-27T22:39:07;101251.22;;;9.54;59.99
47897;BME280;39629;51.400;5.494;2023-04-27T22:44:09;101250.34;;;9.55;59.39
47897;BME280;39629;51.400;5.494;2023-04-27T22:49:10;101242.41;;;9.50;61.02
47897;BME280;39629;51.400;5.494;2023-04-27T22:54:15;101232.75;;;9.49;60.94
47897;BME280;39629;51.400;5.494;2023-04-27T22:59:17;101243.25;;;9.46;61.96
47897;BME280;39629;51.400;5.494;2023-04-27T23:04:22;101242.31;;;9.41;65.27
47897;BME280;39629;51.400;5.494;2023-04-27T23:09:24;101230.06;;;9.37;64.56
47897;BME280;39629;51.400;5.494;2023-04-27T23:14:27;101229.97;;;9.28;67.89
47897;BME280;39629;51.400;5.494;2023-04-27T23:19:29;101228.19;;;9.22;69.03
47897;BME280;39629;51.400;5.494;2023-04-27T23:24:32;101233.38;;;9.17;70.67
47897;BME280;39629;51.400;5.494;2023-04-27T23:29:34;101230.69;;;9.11;71.14
47897;BME280;39629;51.400;5.494;2023-04-27T23:34:35;101227.94;;;8.96;85.04
47897;BME280;39629;51.400;5.494;2023-04-27T23:39:38;101220.69;;;8.76;94.25
47897;BME280;39629;51.400;5.494;2023-04-27T23:44:39;101209.09;;;8.54;100.00
47897;BME280;39629;51.400;5.494;2023-04-27T23:49:42;101187.78;;;8.26;100.00
47897;BME280;39629;51.400;5.494;2023-04-27T23:54:45;101177.97;;;8.11;100.00
47897;BME280;39629;51.400;5.494;2023-04-27T23:59:46;101174.22;;;7.91;100.00
